Impacts TAF Board INFO
FOR SITUATIONAL AWARENESS. NOT TO BE USED FOR FLIGHT PLANNING PURPOSES.
IDs:

KDTW - Detroit Metro/Wayne, MI, US

Issued at 1120 UTC 19 Jun 2018
Updated at 1237 UTC 19 Jun 2018
Potential Impact None Slight Moderate High
Time1153Z 19/13Z 19/14Z 19/15Z 19/16Z 19/17Z 19/18Z 19/19Z 19/20Z 19/21Z 19/22Z 19/23Z 20/00Z 20/01Z>>
Type OBS PRVL
  [TEMP]  
PRVL PRVL PRVL PRVL PRVL PRVL PRVL PRVL PRVL PRVL PRVL PRVL
VIS 10 >6
  [6]  
>6 >6 >6 >6 >6 >6 >6 >6 >6 >6 >6 >6
CIG 130 50
  [50]  
50 70 70 70 70 70 90 90 90 90 90 90
Cover OVC OVC
  [OVC]  
OVC OVC OVC OVC OVC OVC BKN BKN BKN BKN BKN BKN
FltCat VFR VFR
  [VFR]  
VFR VFR VFR VFR VFR VFR VFR VFR VFR VFR VFR VFR
WX -- --
  [-SHRA]  
-- -- -- -- -- -- -- -- -- -- -- --
WDir 40 20
[20]
20 70 70 70 70 70 90 90 90 90 90 90
WSpd 8 6
  [6]  
6 7 7 7 7 7 7 7 7 7 7 7
WGst -- --
  [--]  
-- -- -- -- -- -- -- -- -- -- -- --

Raw TAF
KDTW 191120Z 1912/2018 02006KT P6SM SCT025 OVC050
  TEMPO 1912/1914 6SM -SHRA OVC050
  FM191500 07007KT P6SM OVC070
  FM192000 09007KT P6SM BKN090
  FM200300 06005KT P6SM OVC050
  PROB30 2009/2012 5SM -SHRA OVC035


Raw METAR
KDTW 191153Z 04008KT 10SM SCT045 BKN130 OVC220 21/14 A3000 RMK AO2 SLP154 60000 70139 T02060144 10222 20200 51008 $
KDTW 191053Z 03008KT 10SM BKN045 BKN160 OVC220 21/15 A3000 RMK AO2 SLP154 T02060150 $
KDTW 190953Z 02007KT 10SM FEW007 BKN045 OVC120 20/16 A3000 RMK AO2 SLP152 T02000156 $

METAR Board
Radar Display
Forecast Discussion

FOR SITUATIONAL AWARENESS. NOT TO BE USED FOR FLIGHT PLANNING PURPOSES.